createdAt,value
2019-06-10T00:00:18.069Z,15.80
2019-06-10T00:04:22.708Z,15.70
2019-06-10T00:08:21.355Z,15.60
2019-06-10T00:12:20.956Z,15.60
2019-06-10T00:16:20.862Z,15.40
2019-06-10T00:20:22.635Z,15.30
2019-06-10T00:24:27.748Z,15.20
2019-06-10T00:28:26.265Z,15.20
2019-06-10T00:32:34.299Z,15.30
2019-06-10T00:36:32.967Z,15.30
2019-06-10T00:40:34.198Z,15.20
2019-06-10T00:44:35.769Z,15.10
2019-06-10T00:48:36.055Z,15.00
2019-06-10T00:52:45.281Z,15.00
2019-06-10T00:56:46.026Z,15.00
2019-06-10T01:00:46.314Z,14.90
2019-06-10T01:04:46.397Z,14.90
2019-06-10T01:08:45.965Z,14.90
2019-06-10T01:12:45.875Z,15.00
2019-06-10T01:16:46.029Z,14.90
2019-06-10T01:20:47.630Z,14.90
2019-06-10T01:24:46.260Z,15.00
2019-06-10T01:28:45.113Z,15.00
2019-06-10T01:32:43.693Z,14.90
2019-06-10T01:36:42.279Z,14.80
2019-06-10T01:40:42.306Z,14.70
2019-06-10T01:44:43.623Z,14.70
2019-06-10T01:48:55.041Z,14.60
2019-06-10T01:53:03.914Z,14.60
2019-06-10T01:57:02.507Z,14.50
2019-06-10T02:01:23.180Z,14.40
2019-06-10T02:05:22.699Z,14.40
2019-06-10T02:09:23.027Z,14.40
2019-06-10T02:13:36.677Z,14.40
2019-06-10T02:17:35.936Z,14.50
2019-06-10T02:21:34.479Z,14.40
2019-06-10T02:25:33.349Z,14.40
2019-06-10T02:29:41.463Z,14.20
2019-06-10T02:33:52.457Z,14.10
2019-06-10T02:37:53.698Z,14.00
2019-06-10T02:41:53.698Z,13.90
2019-06-10T02:45:53.056Z,13.90
2019-06-10T02:50:08.774Z,13.80
2019-06-10T02:54:07.576Z,13.70
2019-06-10T02:58:09.860Z,13.60
2019-06-10T03:02:08.419Z,13.50
2019-06-10T03:06:08.918Z,13.60
2019-06-10T03:10:08.065Z,13.70
2019-06-10T03:14:09.201Z,13.90
2019-06-10T03:18:12.927Z,13.90
2019-06-10T03:26:37.954Z,14.20
2019-06-10T03:30:52.891Z,14.30
2019-06-10T03:34:46.718Z,14.30
2019-06-10T03:38:47.308Z,14.30
2019-06-10T03:42:43.286Z,14.20
2019-06-10T03:46:43.161Z,14.20
2019-06-10T03:50:43.137Z,14.20
2019-06-10T03:54:43.219Z,14.20
2019-06-10T03:58:47.882Z,14.20
2019-06-10T04:02:54.160Z,14.30
2019-06-10T04:06:53.282Z,14.30
2019-06-10T04:10:52.169Z,14.30
2019-06-10T04:14:52.177Z,14.30
2019-06-10T04:19:12.924Z,14.30
2019-06-10T04:22:58.939Z,14.30
2019-06-10T04:27:02.632Z,14.30
2019-06-10T04:31:02.481Z,14.30
2019-06-10T04:35:05.233Z,14.40
2019-06-10T04:39:12.297Z,14.50
2019-06-10T04:43:05.978Z,14.60
2019-06-10T04:47:04.603Z,14.70
2019-06-10T04:51:14.202Z,14.80
2019-06-10T04:55:14.377Z,14.90
2019-06-10T04:59:15.693Z,15.00
2019-06-10T05:03:14.247Z,15.00
2019-06-10T05:07:12.997Z,14.90
2019-06-10T05:11:12.770Z,15.00
2019-06-10T05:15:34.147Z,15.10
2019-06-10T05:19:33.755Z,15.20
2019-06-10T05:23:33.180Z,15.30
2019-06-10T05:27:32.986Z,15.50
2019-06-10T05:31:35.032Z,15.70
2019-06-10T05:35:33.911Z,15.90
2019-06-10T05:39:35.124Z,16.00
2019-06-10T05:43:34.517Z,16.10
2019-06-10T05:47:36.075Z,16.20
2019-06-10T05:51:37.018Z,16.30
2019-06-10T05:55:42.579Z,16.40
2019-06-10T05:59:44.932Z,16.40
2019-06-10T06:03:46.119Z,16.50
2019-06-10T06:07:44.712Z,16.80
2019-06-10T06:11:43.360Z,17.00
2019-06-10T06:20:23.442Z,17.60
2019-06-10T06:24:25.751Z,17.90
2019-06-10T06:28:36.078Z,18.20
2019-06-10T06:32:36.933Z,18.40
2019-06-10T06:36:37.915Z,18.50
2019-06-10T06:40:37.578Z,18.60
2019-06-10T06:44:39.445Z,18.80
2019-06-10T06:48:40.327Z,18.90
2019-06-10T06:53:19.050Z,19.00
2019-06-10T06:56:48.349Z,19.10
2019-06-10T07:01:01.947Z,19.40
2019-06-10T07:04:52.580Z,19.50
2019-06-10T07:09:01.437Z,19.60
2019-06-10T07:13:02.756Z,19.70
2019-06-10T07:17:03.931Z,19.90
2019-06-10T07:21:02.733Z,19.80
2019-06-10T07:25:06.315Z,19.40
2019-06-10T07:29:02.905Z,19.00
2019-06-10T07:33:02.962Z,18.90
2019-06-10T07:37:09.999Z,19.20
2019-06-10T07:41:12.515Z,19.30
2019-06-10T07:45:16.351Z,19.80
2019-06-10T07:49:19.916Z,20.20
2019-06-10T07:53:36.991Z,20.30
2019-06-10T07:57:37.483Z,20.60
2019-06-10T08:01:42.687Z,20.80
2019-06-10T08:05:40.101Z,20.70
2019-06-10T08:09:44.308Z,20.70
2019-06-10T08:13:53.517Z,20.50
2019-06-10T08:18:22.754Z,20.50
2019-06-10T08:22:05.857Z,20.80
2019-06-10T08:26:06.446Z,20.90
2019-06-10T08:30:22.190Z,21.20
2019-06-10T08:34:13.938Z,21.50
2019-06-10T08:38:15.525Z,21.70
2019-06-10T08:42:15.444Z,21.90
2019-06-10T08:46:13.996Z,21.80
2019-06-10T08:50:13.134Z,21.50
2019-06-10T08:54:13.247Z,21.20
2019-06-10T08:58:23.439Z,21.10
2019-06-10T09:02:23.035Z,21.20
2019-06-10T09:06:23.132Z,21.40
2019-06-10T09:10:22.824Z,21.50
2019-06-10T09:14:23.464Z,21.60
2019-06-10T09:18:25.129Z,21.80
2019-06-10T09:22:23.887Z,21.80
2019-06-10T09:26:23.063Z,22.00
2019-06-10T09:30:33.523Z,22.50
2019-06-10T09:34:33.027Z,22.80
2019-06-10T09:38:33.463Z,23.20
2019-06-10T09:42:33.320Z,23.50
2019-06-10T09:46:44.069Z,23.60
2019-06-10T09:50:49.107Z,23.20
2019-06-10T09:54:48.773Z,22.80
2019-06-10T09:58:55.125Z,22.60
2019-06-10T10:02:56.596Z,22.60
2019-06-10T10:06:57.367Z,23.00
2019-06-10T10:10:59.230Z,23.20
2019-06-10T10:14:58.024Z,23.70
2019-06-10T10:19:05.003Z,24.00
2019-06-10T10:23:07.966Z,24.30
2019-06-10T10:27:13.220Z,24.70
2019-06-10T10:31:13.087Z,24.90
2019-06-10T10:35:12.626Z,25.20
2019-06-10T10:39:14.469Z,25.30
2019-06-10T10:43:36.508Z,25.70
2019-06-10T10:47:33.333Z,25.50
2019-06-10T10:51:38.408Z,25.20
2019-06-10T10:55:47.199Z,25.10
2019-06-10T10:59:49.432Z,25.00
2019-06-10T11:03:52.541Z,25.10
2019-06-10T11:08:01.365Z,25.30
2019-06-10T11:11:58.440Z,25.50
2019-06-10T11:16:04.837Z,25.70
2019-06-10T11:20:04.476Z,26.10
2019-06-10T11:24:04.832Z,25.90
2019-06-10T11:28:05.379Z,25.70
2019-06-10T11:32:16.485Z,25.90
2019-06-10T11:36:22.589Z,26.20
2019-06-10T11:40:31.595Z,26.30
2019-06-10T11:44:33.958Z,26.20
2019-06-10T11:48:34.729Z,26.10
2019-06-10T11:52:34.750Z,26.60
2019-06-10T11:56:36.524Z,26.90
2019-06-10T12:00:55.845Z,27.10
2019-06-10T12:04:52.912Z,27.30
2019-06-10T12:08:51.426Z,27.60
2019-06-10T12:12:56.353Z,27.90
2019-06-10T12:21:01.662Z,27.10
2019-06-10T12:29:25.069Z,26.90
2019-06-10T12:33:37.899Z,27.40
2019-06-10T12:37:42.682Z,27.60
2019-06-10T12:41:45.627Z,27.40
2019-06-10T12:45:57.160Z,27.40
2019-06-10T12:50:01.767Z,27.40
2019-06-10T12:54:05.754Z,27.60
2019-06-10T12:58:04.382Z,27.80
2019-06-10T13:02:15.366Z,27.90
2019-06-10T13:06:09.184Z,28.00
2019-06-10T13:10:23.604Z,27.90
2019-06-10T13:14:24.277Z,27.90
2019-06-10T13:18:33.232Z,27.70
2019-06-10T13:22:39.063Z,27.60
2019-06-10T13:26:43.185Z,27.30
2019-06-10T13:30:43.923Z,26.90
2019-06-10T13:34:42.801Z,26.50
2019-06-10T13:38:49.700Z,26.10
2019-06-10T13:42:49.141Z,26.00
2019-06-10T13:46:49.823Z,25.80
2019-06-10T13:51:07.246Z,25.60
2019-06-10T13:55:07.880Z,25.40
2019-06-10T13:59:11.027Z,25.40
2019-06-10T14:03:15.833Z,25.30
2019-06-10T14:07:17.306Z,25.40
2019-06-10T14:11:16.397Z,25.60
2019-06-10T14:15:18.510Z,26.20
2019-06-10T14:19:23.194Z,26.60
2019-06-10T14:23:22.244Z,26.70
2019-06-10T14:27:22.303Z,26.30
2019-06-10T14:31:43.423Z,25.80
2019-06-10T14:35:28.636Z,25.40
2019-06-10T14:39:34.755Z,24.90
2019-06-10T14:43:35.844Z,24.80
2019-06-10T14:47:39.680Z,24.70
2019-06-10T14:51:37.976Z,24.60
2019-06-10T14:55:37.179Z,24.80
2019-06-10T14:59:36.532Z,24.80
2019-06-10T15:03:35.085Z,24.90
2019-06-10T15:07:34.057Z,24.90
2019-06-10T15:11:38.354Z,25.00
2019-06-10T15:15:42.437Z,25.00
2019-06-10T15:19:44.618Z,25.10
2019-06-10T15:23:43.698Z,25.10
2019-06-10T15:27:46.801Z,25.20
2019-06-10T15:31:47.523Z,25.50
2019-06-10T15:35:46.085Z,25.80
2019-06-10T15:39:44.658Z,26.10
2019-06-10T15:43:43.230Z,26.40
2019-06-10T15:47:45.659Z,26.20
2019-06-10T15:51:44.227Z,25.80
2019-06-10T15:56:12.555Z,25.50
2019-06-10T15:59:59.315Z,25.30
2019-06-10T16:04:00.313Z,25.20
2019-06-10T16:08:02.281Z,25.80
2019-06-10T16:12:02.929Z,26.90
2019-06-10T16:16:03.628Z,29.10
2019-06-10T16:20:04.221Z,29.80
2019-06-10T16:24:03.278Z,29.80
2019-06-10T16:28:05.859Z,30.60
2019-06-10T16:32:18.367Z,31.20
2019-06-10T16:36:12.587Z,29.90
2019-06-10T16:40:12.306Z,28.50
2019-06-10T16:44:36.982Z,27.40
2019-06-10T16:48:36.274Z,27.70
2019-06-10T16:52:43.135Z,26.60
2019-06-10T16:56:45.820Z,26.00
2019-06-10T17:00:46.069Z,25.40
2019-06-10T17:04:52.804Z,24.90
2019-06-10T17:08:54.683Z,24.50
2019-06-10T17:13:06.781Z,24.20
2019-06-10T17:17:05.349Z,24.10
2019-06-10T17:21:05.896Z,23.90
2019-06-10T17:25:06.379Z,23.70
2019-06-10T17:29:05.245Z,23.50
2019-06-10T17:33:16.336Z,23.20
2019-06-10T17:37:13.862Z,22.80
2019-06-10T17:41:13.300Z,22.40
2019-06-10T17:45:14.151Z,22.20
2019-06-10T17:49:13.141Z,22.00
2019-06-10T17:53:12.756Z,21.80
2019-06-10T17:57:12.863Z,21.60
2019-06-10T18:01:12.945Z,21.50
2019-06-10T18:05:12.852Z,21.50
2019-06-10T18:09:12.224Z,21.40
2019-06-10T18:13:16.411Z,21.30
2019-06-10T18:17:12.763Z,21.30
2019-06-10T18:21:12.702Z,21.20
2019-06-10T18:25:16.851Z,21.20
2019-06-10T18:29:33.661Z,21.20
2019-06-10T18:33:23.117Z,21.10
2019-06-10T18:37:28.167Z,21.00
2019-06-10T18:41:31.337Z,20.80
2019-06-10T18:45:36.006Z,20.80
2019-06-10T18:49:36.218Z,20.70
2019-06-10T18:53:36.435Z,20.60
2019-06-10T18:57:49.161Z,20.60
2019-06-10T19:01:45.811Z,20.60
2019-06-10T19:05:49.774Z,20.50
2019-06-10T19:09:50.096Z,20.50
2019-06-10T19:13:52.794Z,20.50
2019-06-10T19:17:53.581Z,20.30
2019-06-10T19:22:02.736Z,20.10
2019-06-10T19:25:58.655Z,19.90
2019-06-10T19:30:01.319Z,19.70
2019-06-10T19:33:59.849Z,19.60
2019-06-10T19:37:58.405Z,19.60
2019-06-10T19:42:03.771Z,19.50
2019-06-10T19:46:15.125Z,19.40
2019-06-10T19:50:12.367Z,19.40
2019-06-10T19:54:12.773Z,19.30
2019-06-10T19:58:13.388Z,19.30
2019-06-10T20:02:46.548Z,19.20
2019-06-10T20:06:37.841Z,19.10
2019-06-10T20:10:40.260Z,19.00
2019-06-10T20:14:47.871Z,18.80
2019-06-10T20:18:58.069Z,18.60
2019-06-10T20:22:57.517Z,18.40
2019-06-10T20:27:23.546Z,18.20
2019-06-10T20:31:24.089Z,18.00
2019-06-10T20:35:24.337Z,17.80
2019-06-10T20:39:24.913Z,17.70
2019-06-10T20:43:23.230Z,17.50
2019-06-10T20:47:22.956Z,17.40
2019-06-10T20:51:27.057Z,17.30
2019-06-10T20:55:41.063Z,17.20
2019-06-10T20:59:33.995Z,17.20
2019-06-10T21:03:36.488Z,17.10
2019-06-10T21:07:47.236Z,17.10
2019-06-10T21:11:49.771Z,17.00
2019-06-10T21:15:55.215Z,16.90
2019-06-10T21:20:03.369Z,16.90
2019-06-10T21:24:25.014Z,16.90
2019-06-10T21:28:23.516Z,16.90
2019-06-10T21:32:26.561Z,16.80
2019-06-10T21:36:29.315Z,16.80
2019-06-10T21:40:33.058Z,16.80
2019-06-10T21:44:41.760Z,16.80
2019-06-10T21:48:45.656Z,16.80
2019-06-10T21:52:48.776Z,16.70
2019-06-10T21:56:47.321Z,16.80
2019-06-10T22:01:05.715Z,16.80
2019-06-10T22:04:52.536Z,16.80
2019-06-10T22:08:53.063Z,16.70
2019-06-10T22:12:52.758Z,16.70
2019-06-10T22:16:52.927Z,16.60
2019-06-10T22:20:54.223Z,16.40
2019-06-10T22:24:53.266Z,16.20
2019-06-10T22:28:54.123Z,16.10
2019-06-10T22:32:59.574Z,16.00
2019-06-10T22:37:03.365Z,16.00
2019-06-10T22:41:04.189Z,16.10
2019-06-10T22:45:07.965Z,16.10
2019-06-10T22:49:07.982Z,16.20
2019-06-10T22:53:06.540Z,16.20
2019-06-10T22:57:07.977Z,16.20
2019-06-10T23:01:08.168Z,16.20
2019-06-10T23:05:07.412Z,16.20
2019-06-10T23:09:07.034Z,16.20
2019-06-10T23:13:09.633Z,16.20
2019-06-10T23:17:17.778Z,16.20
2019-06-10T23:21:20.969Z,16.20
2019-06-10T23:25:16.829Z,16.10
2019-06-10T23:29:16.227Z,16.10
2019-06-10T23:33:16.711Z,16.10
2019-06-10T23:37:15.922Z,16.00
2019-06-10T23:41:14.571Z,16.00
2019-06-10T23:45:13.291Z,16.00
2019-06-10T23:49:13.397Z,16.00
2019-06-10T23:53:13.159Z,16.00
2019-06-10T23:57:15.369Z,16.00
